Archival Weather

Sydney Intl

Sydney, Australia (YSSY)

Report from: Sunday, March 19, 2023 7:20 PM AEDT
Current time: Tuesday, February 27, 2024 9:49 PM AEDT

Current weather – Weather history – Daily summaries
Weather forecast

Present weatherDrizzle, fog
Temperature23.0°C (73.4°F)
Dew point22.0°C (71.6°F)
Winds 12 kts (6.2 m/s, 13.8 mph) South (170°)
Visibility2296.6 ft. (700 m)
Clouds Ceiling: Broken clouds 100 ft. (30 m)
Altimeter30.00 in.Hg (1016 mB)
Relative humidity94 %
Density altitude1,193 ft. (364 m)
Remarks Fully automated report
Special weather observation
Flight conditions Low Instrument Meteorological Conditions
Raw dataSPAU31 KWBC 190826 SPECI YSSY 190820Z AUTO 17012KT 0700 DZ FG BKN001 23/22 Q1016 RF00/0/000/0
An error has occurred. This application may no longer respond until reloaded. Reload 🗙